Tiptonville, TN (38079)

9:01 AM CST on February 12, 2016 (GMT -0600)
Reelfoot Lake Cabins Project | | Change Station
CLOSE
Current Station
Personal Weather Station
Location: Tiptonville, TN
Elevation: 279 ft
Nearby Weather Stations
Active Advisory: Flood Advisory

Elev 279 ft 36.35 °N, 89.41 °W | Updated 1 second ago

Overcast
Overcast
36.6 °F
Feels Like 34 °F
N
3.7
Wind Variable Wind from North

Today
High -- | Low -- °F
--% Chance of Precip.
Yesterday
High -- | Low -- °F
Precip. -- in
Pressure 30.24 in
Visibility 10.0 miles
Clouds Mostly Cloudy 6500 ft
Windchill 34 °F
Dew Point 27 °F
Humidity 67%
Rainfall 0.00 in
Snow Depth Not available.
6:49 AM 5:35 PM
Waxing Crescent, 21% visible
METAR KDYR 121415Z AUTO 34003KT 10SM BKN065 01/M04 A3024 RMK AO1
Pressure 30.24 in
Visibility 10.0 miles
Clouds Mostly Cloudy 6500 ft
Windchill 34 °F
Dew Point 27 °F
Humidity 67%
Rainfall 0.00 in
Snow Depth Not available.
6:49 AM 5:35 PM
Waxing Crescent, 21% visible
METAR KDYR 121415Z AUTO 34003KT 10SM BKN065 01/M04 A3024 RMK AO1

10-Day Weather Forecast

Almanac

Astronomy

Feb. 12, 2016 Rise Set
Actual Time
Civil Twilight
Nautical Twilight
Astronomical Twilight
Moon
Length of Visible Light
Length of Day
Tomorrow will be .
, % of the Moon is Illuminated

Today's Extremes

State Highs State Lows

Community

WunderPhotos

Upload Photos

1,892,323 photos uploaded!

WunderBlog® & News

Nearby

Air Quality

  Air Quality AQ Index Pollutant
Not available.

Snow Depth

Station Depth Elevation

Earthquake Activity

City Distance Mag. Time & Date
Minimum magnitude displayed is 2.5.

Coastal Water Temperatures

Place Temperature

Stations

Nearby Weather Stations

Station Location Temp. Windchill Dew Point Humidity Wind Precip. Elev Updated Type
                   

Watches & Warnings

Flood Advisory
Issued: 9:30 PM CST Feb. 11, 2016 – National Weather Service

The Flood Advisory continues for
the Mississippi River at Caruthersville
* until Saturday February 13.
* At 09 PM Thursday the stage was 28.9 feet.
* Flood stage is 32.0 feet.
* Forecast... the river will rise to near 29.0 feet Friday February
12.
* At 29.0 feet... in Tennessee, shipping operation south of Heloise is
being flooded. Chisholm Lake Road is flooded south of cocklebur
Slough. Overbank flooding begins on low lying farmland along both
banks of the Mississippi River and the Obion river in northwest
Tennessee. Old Forked Deer river bed is beginning to flood fields
in the Hales Point area south of Suggs Road. In Arkansas, roads
inside the levee south of Caruthersville, Missouri are beginning to
flood.


Lat... Lon 3623 8977 3623 8948 3606 8950 3595 8948
      3582 8956 3582 8985